Cadys Falls, Vermont
Current Conditions -  °F | °C
As of 12:29 PM on Tuesday 21 Oct 2014 (Local Time) from KMVL Reporting Station
Light Rain Light Rain  
Wind Chill: 47°   Ceiling: 2600
Heat Index: 47°   Visibility: 4mi
Dew Point: 43°   Wind: 0mph
Humidity: 86%   Direction: NA
Pressure: 30.02"   Gusts: NA
Location:  44.5482°N, 72.6315°W
Report Text: KMVL 211629Z AUTO 00000KT 4SM -RA BR BKN026 OVC039 08/06 A3002 RMK AO2 P0002 T00830061
Loading
Personal Weather Stations






























Interactive Weather Map
Tropical Storm Tracking
New forecast layout! Learn more

10-Day Weather Forecast

Advertisements
Track Severe Weather on mobile